Airfield :
LOGIN :

Register | Disclaimer

   EN    FR    IT 

 










Legend :    VFR   Marginal VFR   IFR   Intensive IFR   Very Intensive IFR
Visi :
Ceiling :
>= 8 km
>= 3000ft
5 to 8 km
1000 to 3000 ft
1500m to 5 km
500 to 1000 ft
800 to 1500m
200 to 500 ft
< 800m
< 200 ft
Symbols :   Thunderstorms  Fog  Heavy snow  Heavy precipitations  Wind > 20 kt
SIGMETs :     Misc.  Thunderstorms  Icing  Turbulence  Mountain Waves  Volcanic Ashes






- Airport Elevation : 856 ft
- IATA code : VGO


LEVX - Vigo Peinador

CURRENT METAR :
  • 061200Z 05005KT 350V110 CAVOK 29/18 Q1019 NOSIG

EXPIRED METARs :
  • 061130Z VRB04KT CAVOK 28/18 Q1019 NOSIG
  • 061100Z VRB05KT CAVOK 28/19 Q1019 NOSIG
  • 061030Z VRB04KT CAVOK 28/17 Q1019 NOSIG
  • 061000Z 06004KT 360V120 CAVOK 26/17 Q1019 NOSIG
  • 060930Z 04003KT 300V110 CAVOK 25/17 Q1019 NOSIG

TAF TAF LEVX
Valid from the 06 at 12:00 until the 07 at 12:00 UTC


061100Z 0612/0712 01009KT CAVOK TX34/0614Z TN20/0705Z
PROB30
TEMPO 0615/0618 35015G25KT



MET'MAP, your aeronautical weather chart ! - Copyright ORBIFLY December 2007 - Disclaimer

ORBIFLY MET'MAP TEAM :

Programming & Development : Alexandra Zaïnal
Concept & original design : Baudouin d'Aumeries
Assistance for programming : Marc-Olivier Méhu
Technical & hardware support : Manuel Goepfert

Contact : metmap@orbifly.com




SOURCES & CREDITS :

   NOAA